Time,TemperatureF,DewpointF,PressureIn,WindDirection,WindDirectionDegrees,WindSpeedMPH,WindSpeedGustMPH,Humidity,HourlyPrecipIn,Conditions,Clouds,dailyrainin,SoftwareType,DateUTC
2013-08-15 00:01:00,63.0,53.5,30.16,SSE,168,1.1,1.1,71,0.00,CLR,SCT,0.00,WeatherDisplay:10.37,2013-08-15 04:01:00,
2013-08-15 00:02:00,62.9,53.4,30.16,SSE,168,0.0,0.0,71,0.00,CLR,SCT,0.00,WeatherDisplay:10.37,2013-08-15 04:02:00,
2013-08-15 00:07:00,62.8,53.3,30.16,SSE,168,1.1,0.0,71,0.00,CLR,SCT,0.00,WeatherDisplay:10.37,2013-08-15 04:07:00,
2013-08-15 00:12:00,62.7,53.2,30.17,ESE,104,0.0,0.0,71,0.00,CLR,SCT,0.00,WeatherDisplay:10.37,2013-08-15 04:12:00,
2013-08-15 00:17:00,62.6,53.1,30.16,ESE,104,0.0,0.0,71,0.00,CLR,SCT,0.00,WeatherDisplay:10.37,2013-08-15 04:17:00,
2013-08-15 00:22:00,62.7,53.2,30.17,ESE,104,0.0,0.0,71,0.00,CLR,SCT,0.00,WeatherDisplay:10.37,2013-08-15 04:22:00,
2013-08-15 00:27:00,62.7,53.2,30.16,South,174,1.1,1.1,71,0.00,CLR,SCT,0.00,WeatherDisplay:10.37,2013-08-15 04:27:00,
2013-08-15 00:32:00,62.6,53.1,30.17,South,174,0.0,0.0,71,0.00,CLR,SCT,0.00,WeatherDisplay:10.37,2013-08-15 04:32:00,
2013-08-15 00:37:00,62.5,53.4,30.17,South,174,0.0,0.0,72,0.00,CLR,SCT,0.00,WeatherDisplay:10.37,2013-08-15 04:37:00,
2013-08-15 00:42:00,62.5,53.4,30.16,South,174,0.0,0.0,72,0.00,CLR,SCT,0.00,WeatherDisplay:10.37,2013-08-15 04:42:00,
2013-08-15 00:47:00,62.3,53.2,30.17,South,174,0.0,0.0,72,0.00,CLR,SCT,0.00,WeatherDisplay:10.37,2013-08-15 04:47:00,
2013-08-15 00:52:00,62.5,53.4,30.17,South,174,0.0,0.0,72,0.00,CLR,SCT,0.00,WeatherDisplay:10.37,2013-08-15 04:52:00,
2013-08-15 00:57:00,62.6,53.5,30.16,ENE,62,0.0,0.0,72,0.00,CLR,SCT,0.00,WeatherDisplay:10.37,2013-08-15 04:57:00,
2013-08-15 01:02:00,62.5,53.4,30.16,ENE,62,0.0,0.0,72,0.00,FEW,SCT,0.00,WeatherDisplay:10.37,2013-08-15 05:02:00,
2013-08-15 01:07:00,62.5,53.4,30.16,ENE,62,0.0,0.0,72,0.00,FEW,SCT,0.00,WeatherDisplay:10.37,2013-08-15 05:07:00,
2013-08-15 01:12:00,62.2,53.5,30.16,ENE,62,0.0,0.0,73,0.00,FEW,SCT,0.00,WeatherDisplay:10.37,2013-08-15 05:12:00,
2013-08-15 01:17:00,62.4,54.0,30.16,ENE,62,0.0,0.0,74,0.00,FEW,SCT,0.00,WeatherDisplay:10.37,2013-08-15 05:17:00,
2013-08-15 01:22:00,62.1,53.8,30.16,ENE,62,0.0,0.0,74,0.00,FEW,SCT,0.00,WeatherDisplay:10.37,2013-08-15 05:22:00,
2013-08-15 01:27:00,62.0,53.7,30.16,ENE,62,0.0,0.0,74,0.00,FEW,SCT,0.00,WeatherDisplay:10.37,2013-08-15 05:27:00,
2013-08-15 01:32:00,62.0,54.0,30.16,ENE,62,0.0,0.0,75,0.00,FEW,SCT,0.00,WeatherDisplay:10.37,2013-08-15 05:32:00,
2013-08-15 01:37:00,61.9,53.6,30.16,ENE,62,0.0,0.0,74,0.00,FEW,SCT,0.00,WeatherDisplay:10.37,2013-08-15 05:37:00,
2013-08-15 01:42:00,61.9,53.9,30.16,ENE,62,0.0,0.0,75,0.00,FEW,SCT,0.00,WeatherDisplay:10.37,2013-08-15 05:42:00,
2013-08-15 01:47:00,61.9,53.6,30.16,ENE,62,0.0,0.0,74,0.00,FEW,SCT,0.00,WeatherDisplay:10.37,2013-08-15 05:47:00,
2013-08-15 01:52:00,61.6,53.3,30.16,ENE,62,0.0,0.0,74,0.00,FEW,SCT,0.00,WeatherDisplay:10.37,2013-08-15 05:52:00,
2013-08-15 01:57:00,61.6,53.3,30.16,ENE,62,0.0,0.0,74,0.00,FEW,SCT,0.00,WeatherDisplay:10.37,2013-08-15 05:57:00,
2013-08-15 02:02:00,61.5,53.2,30.16,ENE,62,0.0,0.0,74,0.00,BKN,SCT,0.00,WeatherDisplay:10.37,2013-08-15 06:02:00,
2013-08-15 02:07:00,61.7,53.4,30.16,ENE,62,0.0,0.0,74,0.00,BKN,SCT,0.00,WeatherDisplay:10.37,2013-08-15 06:07:00,
2013-08-15 02:12:00,61.8,53.8,30.16,ENE,62,0.0,0.0,75,0.00,BKN,SCT,0.00,WeatherDisplay:10.37,2013-08-15 06:12:00,
2013-08-15 02:17:00,61.5,53.9,30.16,ENE,62,0.0,0.0,76,0.00,BKN,SCT,0.00,WeatherDisplay:10.37,2013-08-15 06:17:00,
2013-08-15 02:22:00,61.4,53.8,30.15,ENE,62,0.0,0.0,76,0.00,BKN,SCT,0.00,WeatherDisplay:10.37,2013-08-15 06:22:00,
2013-08-15 02:27:00,61.1,53.2,30.15,ENE,62,0.0,0.0,75,0.00,BKN,SCT,0.00,WeatherDisplay:10.37,2013-08-15 06:27:00,
2013-08-15 02:32:00,61.3,53.3,30.15,ENE,62,0.0,0.0,75,0.00,BKN,SCT,0.00,WeatherDisplay:10.37,2013-08-15 06:32:00,
2013-08-15 02:37:00,61.3,53.3,30.15,ENE,62,0.0,0.0,75,0.00,BKN,SCT,0.00,WeatherDisplay:10.37,2013-08-15 06:37:00,
2013-08-15 02:42:00,61.0,53.1,30.15,ENE,62,0.0,0.0,75,0.00,BKN,SCT,0.00,WeatherDisplay:10.37,2013-08-15 06:42:00,
2013-08-15 02:47:00,60.8,52.9,30.15,ENE,62,0.0,0.0,75,0.00,BKN,SCT,0.00,WeatherDisplay:10.37,2013-08-15 06:47:00,
2013-08-15 02:52:00,61.0,53.4,30.15,ENE,62,0.0,0.0,76,0.00,BKN,SCT,0.00,WeatherDisplay:10.37,2013-08-15 06:52:00,
2013-08-15 02:57:00,61.0,53.4,30.15,ENE,62,0.0,0.0,76,0.00,BKN,SCT,0.00,WeatherDisplay:10.37,2013-08-15 06:57:00,
2013-08-15 03:02:00,60.9,53.3,30.15,ENE,62,0.0,0.0,76,0.00,SCT,,0.00,WeatherDisplay:10.37,2013-08-15 07:02:00,
2013-08-15 03:07:00,60.8,53.6,30.15,ENE,62,0.0,0.0,77,0.00,SCT,,0.00,WeatherDisplay:10.37,2013-08-15 07:07:00,
2013-08-15 03:12:00,60.6,53.4,30.15,ENE,62,0.0,0.0,77,0.00,SCT,,0.00,WeatherDisplay:10.37,2013-08-15 07:12:00,
2013-08-15 03:17:00,60.4,53.2,30.15,ENE,62,0.0,0.0,77,0.00,SCT,,0.00,WeatherDisplay:10.37,2013-08-15 07:17:00,
2013-08-15 03:22:00,60.3,53.1,30.15,ENE,62,0.0,0.0,77,0.00,SCT,,0.00,WeatherDisplay:10.37,2013-08-15 07:22:00,
2013-08-15 03:27:00,60.2,53.4,30.15,ENE,62,0.0,0.0,78,0.00,SCT,,0.00,WeatherDisplay:10.37,2013-08-15 07:27:00,
2013-08-15 03:33:00,59.9,53.1,30.15,ENE,62,0.0,0.0,78,0.00,SCT,,0.00,WeatherDisplay:10.37,2013-08-15 07:33:00,
2013-08-15 03:38:00,59.4,52.6,30.15,ENE,62,0.0,0.0,78,0.00,SCT,,0.00,WeatherDisplay:10.37,2013-08-15 07:38:00,
2013-08-15 03:43:00,59.5,52.7,30.15,ENE,62,0.0,0.0,78,0.00,SCT,,0.00,WeatherDisplay:10.37,2013-08-15 07:43:00,
2013-08-15 03:48:00,59.5,52.7,30.15,ENE,62,0.0,0.0,78,0.00,SCT,,0.00,WeatherDisplay:10.37,2013-08-15 07:48:00,
2013-08-15 03:53:00,59.4,52.9,30.14,ENE,62,0.0,0.0,79,0.00,SCT,,0.00,WeatherDisplay:10.37,2013-08-15 07:53:00,
2013-08-15 03:58:00,59.3,52.8,30.14,ENE,62,0.0,0.0,79,0.00,SCT,,0.00,WeatherDisplay:10.37,2013-08-15 07:58:00,
2013-08-15 04:03:00,59.2,52.7,30.15,ENE,62,0.0,0.0,79,0.00,SCT,,0.00,WeatherDisplay:10.37,2013-08-15 08:03:00,
2013-08-15 04:08:00,59.0,52.5,30.15,ENE,62,0.0,0.0,79,0.00,SCT,,0.00,WeatherDisplay:10.37,2013-08-15 08:08:00,
2013-08-15 04:13:00,58.8,52.3,30.15,ENE,62,0.0,0.0,79,0.00,SCT,,0.00,WeatherDisplay:10.37,2013-08-15 08:13:00,
2013-08-15 04:18:00,58.9,52.8,30.15,ENE,62,0.0,0.0,80,0.00,SCT,,0.00,WeatherDisplay:10.37,2013-08-15 08:18:00,
2013-08-15 04:23:00,58.8,52.7,30.15,ENE,62,0.0,0.0,80,0.00,SCT,,0.00,WeatherDisplay:10.37,2013-08-15 08:23:00,
2013-08-15 04:28:00,58.8,52.3,30.15,ENE,62,0.0,0.0,79,0.00,SCT,,0.00,WeatherDisplay:10.37,2013-08-15 08:28:00,
2013-08-15 04:33:00,58.8,52.7,30.15,ENE,62,0.0,0.0,80,0.00,SCT,,0.00,WeatherDisplay:10.37,2013-08-15 08:33:00,
2013-08-15 04:38:00,58.7,52.6,30.15,ENE,62,0.0,0.0,80,0.00,SCT,,0.00,WeatherDisplay:10.37,2013-08-15 08:38:00,
2013-08-15 04:43:00,58.5,52.4,30.15,ENE,62,0.0,0.0,80,0.00,SCT,,0.00,WeatherDisplay:10.37,2013-08-15 08:43:00,
2013-08-15 04:48:00,58.4,52.3,30.15,ENE,62,0.0,0.0,80,0.00,SCT,,0.00,WeatherDisplay:10.37,2013-08-15 08:48:00,
2013-08-15 04:53:00,58.2,52.1,30.15,ENE,62,0.0,0.0,80,0.00,SCT,,0.00,WeatherDisplay:10.37,2013-08-15 08:53:00,
2013-08-15 04:58:00,58.0,51.9,30.15,ENE,62,0.0,0.0,80,0.00,SCT,,0.00,WeatherDisplay:10.37,2013-08-15 08:58:00,
2013-08-15 05:03:00,57.8,51.7,30.15,ENE,62,0.0,0.0,80,0.00,CLR,SCT,0.00,WeatherDisplay:10.37,2013-08-15 09:03:00,
2013-08-15 05:08:00,57.6,51.5,30.15,ENE,62,0.0,0.0,80,0.00,CLR,SCT,0.00,WeatherDisplay:10.37,2013-08-15 09:08:00,
2013-08-15 05:13:00,57.7,51.9,30.16,ENE,62,0.0,0.0,81,0.00,CLR,SCT,0.00,WeatherDisplay:10.37,2013-08-15 09:13:00,
2013-08-15 05:18:00,57.5,51.8,30.16,ENE,62,0.0,0.0,81,0.00,CLR,SCT,0.00,WeatherDisplay:10.37,2013-08-15 09:18:00,
2013-08-15 05:23:00,57.5,51.4,30.16,ENE,62,0.0,0.0,80,0.00,CLR,SCT,0.00,WeatherDisplay:10.37,2013-08-15 09:23:00,
2013-08-15 05:28:00,57.6,51.8,30.16,ENE,62,0.0,0.0,81,0.00,CLR,SCT,0.00,WeatherDisplay:10.37,2013-08-15 09:28:00,
2013-08-15 05:33:00,57.6,51.8,30.16,ENE,62,0.0,0.0,81,0.00,CLR,SCT,0.00,WeatherDisplay:10.37,2013-08-15 09:33:00,
2013-08-15 05:38:00,57.5,51.8,30.16,ENE,62,0.0,0.0,81,0.00,CLR,SCT,0.00,WeatherDisplay:10.37,2013-08-15 09:38:00,
2013-08-15 05:43:00,57.6,51.5,30.16,ENE,62,0.0,0.0,80,0.00,CLR,SCT,0.00,WeatherDisplay:10.37,2013-08-15 09:43:00,
2013-08-15 05:48:00,57.8,51.7,30.16,ENE,62,0.0,0.0,80,0.00,CLR,SCT,0.00,WeatherDisplay:10.37,2013-08-15 09:48:00,
2013-08-15 05:53:00,57.6,51.5,30.17,ENE,62,0.0,0.0,80,0.00,CLR,SCT,0.00,WeatherDisplay:10.37,2013-08-15 09:53:00,
2013-08-15 05:58:00,57.4,51.3,30.17,ENE,62,0.0,0.0,80,0.00,CLR,SCT,0.00,WeatherDisplay:10.37,2013-08-15 09:58:00,
2013-08-15 06:03:00,57.4,51.7,30.17,ENE,62,0.0,0.0,81,0.00,CLR,SCT,0.00,WeatherDisplay:10.37,2013-08-15 10:03:00,
2013-08-15 06:08:00,57.3,51.6,30.17,ENE,62,0.0,0.0,81,0.00,CLR,SCT,0.00,WeatherDisplay:10.37,2013-08-15 10:08:00,
2013-08-15 06:13:00,57.0,51.3,30.17,ENE,62,0.0,0.0,81,0.00,CLR,SCT,0.00,WeatherDisplay:10.37,2013-08-15 10:13:00,
2013-08-15 06:18:00,57.0,51.3,30.17,ENE,62,0.0,0.0,81,0.00,CLR,SCT,0.00,WeatherDisplay:10.37,2013-08-15 10:18:00,
2013-08-15 06:23:00,57.0,51.3,30.17,ENE,62,0.0,0.0,81,0.00,CLR,SCT,0.00,WeatherDisplay:10.37,2013-08-15 10:23:00,
2013-08-15 06:28:00,57.0,51.3,30.17,ENE,62,0.0,0.0,81,0.00,CLR,SCT,0.00,WeatherDisplay:10.37,2013-08-15 10:28:00,
2013-08-15 06:33:00,56.7,51.0,30.18,ENE,62,0.0,0.0,81,0.00,CLR,SCT,0.00,WeatherDisplay:10.37,2013-08-15 10:33:00,
2013-08-15 06:38:00,56.5,51.1,30.18,ENE,62,0.0,0.0,82,0.00,CLR,SCT,0.00,WeatherDisplay:10.37,2013-08-15 10:38:00,
2013-08-15 06:43:00,56.7,51.3,30.18,ENE,62,0.0,0.0,82,0.00,CLR,SCT,0.00,WeatherDisplay:10.37,2013-08-15 10:43:00,
2013-08-15 06:48:00,56.8,51.4,30.18,ENE,62,0.0,0.0,82,0.00,CLR,SCT,0.00,WeatherDisplay:10.37,2013-08-15 10:48:00,
2013-08-15 06:53:00,57.0,51.6,30.18,ENE,62,0.0,0.0,82,0.00,CLR,SCT,0.00,WeatherDisplay:10.37,2013-08-15 10:53:00,
2013-08-15 06:58:00,56.9,51.8,30.18,ENE,62,0.0,0.0,83,0.00,CLR,SCT,0.00,WeatherDisplay:10.37,2013-08-15 10:58:00,
2013-08-15 07:03:00,56.7,51.3,30.19,ENE,62,0.0,0.0,82,0.00,CLR,SCT,0.00,WeatherDisplay:10.37,2013-08-15 11:03:00,
2013-08-15 07:08:00,56.6,51.5,30.19,ENE,62,0.0,0.0,83,0.00,CLR,SCT,0.00,WeatherDisplay:10.37,2013-08-15 11:08:00,
2013-08-15 07:13:00,56.5,51.4,30.19,ENE,62,0.0,0.0,83,0.00,CLR,SCT,0.00,WeatherDisplay:10.37,2013-08-15 11:13:00,
2013-08-15 07:18:00,56.8,51.7,30.19,ENE,62,0.0,0.0,83,0.00,CLR,SCT,0.00,WeatherDisplay:10.37,2013-08-15 11:18:00,
2013-08-15 07:23:00,56.8,51.7,30.19,ENE,62,0.0,0.0,83,0.00,CLR,SCT,0.00,WeatherDisplay:10.37,2013-08-15 11:23:00,
2013-08-15 07:28:00,56.9,51.8,30.19,ENE,62,0.0,0.0,83,0.00,CLR,SCT,0.00,WeatherDisplay:10.37,2013-08-15 11:28:00,
2013-08-15 07:33:00,57.0,52.3,30.20,ENE,62,0.0,0.0,84,0.00,CLR,SCT,0.00,WeatherDisplay:10.37,2013-08-15 11:33:00,
2013-08-15 07:38:00,57.0,52.3,30.20,ENE,62,0.0,0.0,84,0.00,CLR,SCT,0.00,WeatherDisplay:10.37,2013-08-15 11:38:00,
2013-08-15 07:43:00,57.0,51.9,30.20,ENE,62,0.0,0.0,83,0.00,CLR,SCT,0.00,WeatherDisplay:10.37,2013-08-15 11:43:00,
2013-08-15 07:48:00,57.1,52.0,30.20,ENE,62,0.0,0.0,83,0.00,CLR,SCT,0.00,WeatherDisplay:10.37,2013-08-15 11:48:00,
2013-08-15 07:53:00,57.2,52.4,30.20,ENE,62,0.0,0.0,84,0.00,CLR,SCT,0.00,WeatherDisplay:10.37,2013-08-15 11:53:00,
2013-08-15 07:58:00,57.6,52.8,30.20,ENE,62,0.0,0.0,84,0.00,CLR,SCT,0.00,WeatherDisplay:10.37,2013-08-15 11:58:00,
2013-08-15 08:03:00,57.7,52.9,30.20,ENE,62,0.0,0.0,84,0.00,BKN,SCT,0.00,WeatherDisplay:10.37,2013-08-15 12:03:00,
2013-08-15 08:08:00,57.8,52.7,30.20,ENE,62,0.0,0.0,83,0.00,BKN,SCT,0.00,WeatherDisplay:10.37,2013-08-15 12:08:00,
2013-08-15 08:13:00,57.9,52.5,30.20,ENE,62,0.0,0.0,82,0.00,BKN,SCT,0.00,WeatherDisplay:10.37,2013-08-15 12:13:00,
2013-08-15 08:18:00,58.0,52.6,30.20,ENE,62,0.0,0.0,82,0.00,BKN,SCT,0.00,WeatherDisplay:10.37,2013-08-15 12:18:00,
2013-08-15 08:23:00,58.2,52.4,30.20,East,90,0.0,0.0,81,0.00,BKN,SCT,0.00,WeatherDisplay:10.37,2013-08-15 12:23:00,
2013-08-15 08:28:00,58.4,52.6,30.20,East,90,0.0,0.0,81,0.00,BKN,SCT,0.00,WeatherDisplay:10.37,2013-08-15 12:28:00,
2013-08-15 08:33:00,58.5,52.4,30.21,ENE,68,0.0,0.0,80,0.00,BKN,SCT,0.00,WeatherDisplay:10.37,2013-08-15 12:33:00,
2013-08-15 08:38:00,58.6,52.1,30.21,ENE,68,0.0,0.0,79,0.00,BKN,SCT,0.00,WeatherDisplay:10.37,2013-08-15 12:38:00,
2013-08-15 08:43:00,58.8,52.3,30.21,NNE,30,2.3,2.3,79,0.00,BKN,SCT,0.00,WeatherDisplay:10.37,2013-08-15 12:43:00,
2013-08-15 08:48:00,58.8,52.3,30.21,NNE,30,0.0,0.0,79,0.00,BKN,SCT,0.00,WeatherDisplay:10.37,2013-08-15 12:48:00,
2013-08-15 08:53:00,59.2,52.7,30.21,NNE,30,0.0,0.0,79,0.00,BKN,SCT,0.00,WeatherDisplay:10.37,2013-08-15 12:53:00,
2013-08-15 08:58:00,59.2,52.4,30.21,NNE,30,0.0,0.0,78,0.00,BKN,SCT,0.00,WeatherDisplay:10.37,2013-08-15 12:58:00,
2013-08-15 09:03:00,59.3,52.5,30.22,ENE,76,1.1,1.1,78,0.00,FEW,SCT,0.00,WeatherDisplay:10.37,2013-08-15 13:03:00,
2013-08-15 09:08:00,59.4,52.6,30.21,NNE,32,0.0,0.0,78,0.00,FEW,SCT,0.00,WeatherDisplay:10.37,2013-08-15 13:08:00,
2013-08-15 09:13:00,59.6,52.8,30.21,ENE,73,5.8,5.8,78,0.00,FEW,SCT,0.00,WeatherDisplay:10.37,2013-08-15 13:13:00,
2013-08-15 09:18:00,59.5,52.7,30.21,East,79,3.5,3.5,78,0.00,FEW,SCT,0.00,WeatherDisplay:10.37,2013-08-15 13:18:00,
2013-08-15 09:23:00,59.6,52.8,30.21,ENE,71,4.6,4.6,78,0.00,FEW,SCT,0.00,WeatherDisplay:10.37,2013-08-15 13:23:00,
2013-08-15 09:28:00,60.0,53.2,30.21,NE,35,3.5,3.5,78,0.00,FEW,SCT,0.00,WeatherDisplay:10.37,2013-08-15 13:28:00,
2013-08-15 09:33:00,60.1,52.9,30.21,East,95,3.5,3.5,77,0.00,FEW,SCT,0.00,WeatherDisplay:10.37,2013-08-15 13:33:00,
2013-08-15 09:38:00,60.3,53.1,30.21,East,99,2.5,2.5,77,0.00,FEW,SCT,0.00,WeatherDisplay:10.37,2013-08-15 13:38:00,
2013-08-15 09:43:00,60.6,53.4,30.21,ENE,69,0.0,0.0,77,0.00,FEW,SCT,0.00,WeatherDisplay:10.37,2013-08-15 13:43:00,
2013-08-15 09:48:00,61.0,53.4,30.21,ENE,61,2.3,2.3,76,0.00,FEW,SCT,0.00,WeatherDisplay:10.37,2013-08-15 13:48:00,
2013-08-15 09:53:00,61.2,53.2,30.21,ENE,76,0.8,0.8,75,0.00,FEW,SCT,0.00,WeatherDisplay:10.37,2013-08-15 13:53:00,
2013-08-15 09:58:00,61.5,53.5,30.21,WSW,250,1.1,1.1,75,0.00,FEW,SCT,0.00,WeatherDisplay:10.37,2013-08-15 13:58:00,
2013-08-15 10:03:00,62.0,54.4,30.20,SW,233,0.0,0.0,76,0.00,FEW,SCT,0.00,WeatherDisplay:10.37,2013-08-15 14:03:00,
2013-08-15 10:08:00,62.5,54.1,30.21,SE,133,1.6,1.6,74,0.00,FEW,SCT,0.00,WeatherDisplay:10.37,2013-08-15 14:08:00,
2013-08-15 10:13:00,63.1,53.6,30.21,SW,216,5.8,5.8,71,0.00,FEW,SCT,0.00,WeatherDisplay:10.37,2013-08-15 14:13:00,
2013-08-15 10:18:00,63.3,53.0,30.20,SSE,165,9.2,9.2,69,0.00,FEW,SCT,0.00,WeatherDisplay:10.37,2013-08-15 14:18:00,
2013-08-15 10:23:00,63.4,53.5,30.21,SSE,161,8.2,8.2,70,0.00,FEW,SCT,0.00,WeatherDisplay:10.37,2013-08-15 14:23:00,
2013-08-15 10:28:00,63.6,52.9,30.21,South,175,8.1,8.1,68,0.00,FEW,SCT,0.00,WeatherDisplay:10.37,2013-08-15 14:28:00,
2013-08-15 10:33:00,63.5,52.4,30.21,SW,219,6.9,6.9,67,0.00,FEW,SCT,0.00,WeatherDisplay:10.37,2013-08-15 14:33:00,
2013-08-15 10:38:00,64.0,52.9,30.21,SSE,165,5.8,5.8,67,0.00,FEW,SCT,0.00,WeatherDisplay:10.37,2013-08-15 14:38:00,
2013-08-15 10:45:00,64.6,53.8,30.20,SE,145,4.6,4.6,68,0.00,FEW,SCT,0.00,WeatherDisplay:10.37,2013-08-15 14:45:00,
2013-08-15 10:50:00,65.0,53.4,30.20,South,179,6.9,6.9,66,0.00,FEW,SCT,0.00,WeatherDisplay:10.37,2013-08-15 14:50:00,
2013-08-15 10:55:00,65.7,54.1,30.21,SE,131,4.6,4.6,66,0.00,FEW,SCT,0.00,WeatherDisplay:10.37,2013-08-15 14:55:00,
2013-08-15 11:00:00,65.9,53.4,30.21,SSE,158,9.2,9.2,64,0.00,FEW,SCT,0.00,WeatherDisplay:10.37,2013-08-15 15:00:00,
2013-08-15 11:05:00,65.8,53.7,30.21,SSE,158,5.0,5.0,65,0.00,FEW,SCT,0.00,WeatherDisplay:10.37,2013-08-15 15:05:00,
2013-08-15 11:10:00,66.1,53.6,30.20,South,191,5.8,5.8,64,0.00,FEW,SCT,0.00,WeatherDisplay:10.37,2013-08-15 15:10:00,
2013-08-15 11:15:00,66.7,54.6,30.20,South,174,10.6,10.6,65,0.00,FEW,SCT,0.00,WeatherDisplay:10.37,2013-08-15 15:15:00,
2013-08-15 11:20:00,66.6,54.1,30.20,NE,54,3.5,3.5,64,0.00,FEW,SCT,0.00,WeatherDisplay:10.37,2013-08-15 15:20:00,
2013-08-15 11:25:00,67.1,54.6,30.20,WSW,240,5.5,5.5,64,0.00,FEW,SCT,0.00,WeatherDisplay:10.37,2013-08-15 15:25:00,
2013-08-15 11:30:00,67.8,54.3,30.20,WSW,254,4.6,4.6,62,0.00,FEW,SCT,0.00,WeatherDisplay:10.37,2013-08-15 15:30:00,
2013-08-15 11:35:00,68.0,54.1,30.20,SSE,150,6.9,6.9,61,0.00,FEW,SCT,0.00,WeatherDisplay:10.37,2013-08-15 15:35:00,
2013-08-15 11:40:00,68.1,54.6,30.20,South,188,10.4,10.4,62,0.00,FEW,SCT,0.00,WeatherDisplay:10.37,2013-08-15 15:40:00,
2013-08-15 11:45:00,68.7,55.6,30.20,NE,47,3.5,3.5,63,0.00,FEW,SCT,0.00,WeatherDisplay:10.37,2013-08-15 15:45:00,
2013-08-15 11:50:00,69.2,54.8,30.20,SE,138,9.2,9.2,60,0.00,FEW,SCT,0.00,WeatherDisplay:10.37,2013-08-15 15:50:00,
2013-08-15 11:55:00,69.3,55.8,30.20,South,181,5.8,5.8,62,0.00,FEW,SCT,0.00,WeatherDisplay:10.37,2013-08-15 15:55:00,
2013-08-15 12:00:00,69.3,55.8,30.20,SSW,193,6.9,6.9,62,0.00,FEW,SCT,0.00,WeatherDisplay:10.37,2013-08-15 16:00:00,
2013-08-15 12:05:00,69.1,54.7,30.20,South,175,8.1,8.1,60,0.00,SCT,,0.00,WeatherDisplay:10.37,2013-08-15 16:05:00,
2013-08-15 12:10:00,69.0,55.5,30.19,SE,137,5.8,5.8,62,0.00,SCT,,0.00,WeatherDisplay:10.37,2013-08-15 16:10:00,
2013-08-15 12:16:00,70.0,56.4,30.19,South,186,7.6,7.6,62,0.00,SCT,,0.00,WeatherDisplay:10.37,2013-08-15 16:16:00,
2013-08-15 12:21:00,70.6,56.5,30.19,SSW,210,3.9,3.9,61,0.00,SCT,,0.00,WeatherDisplay:10.37,2013-08-15 16:21:00,
2013-08-15 12:26:00,71.4,57.3,30.19,SSW,195,8.1,8.1,61,0.00,SCT,,0.00,WeatherDisplay:10.37,2013-08-15 16:26:00,
2013-08-15 12:31:00,71.3,55.8,30.18,South,182,10.4,10.4,58,0.00,SCT,,0.00,WeatherDisplay:10.37,2013-08-15 16:31:00,
2013-08-15 12:36:00,70.5,55.5,30.18,South,181,9.2,9.2,59,0.00,SCT,,0.00,WeatherDisplay:10.37,2013-08-15 16:36:00,
2013-08-15 12:41:00,70.3,55.8,30.18,SE,141,2.3,2.3,60,0.00,SCT,,0.00,WeatherDisplay:10.37,2013-08-15 16:41:00,
2013-08-15 12:46:00,70.4,55.0,30.18,WSW,256,8.1,8.1,58,0.00,SCT,,0.00,WeatherDisplay:10.37,2013-08-15 16:46:00,
2013-08-15 12:51:00,70.6,55.1,30.18,NE,52,2.3,2.3,58,0.00,SCT,,0.00,WeatherDisplay:10.37,2013-08-15 16:51:00,
2013-08-15 12:56:00,71.0,56.5,30.17,South,172,5.8,5.8,60,0.00,SCT,,0.00,WeatherDisplay:10.37,2013-08-15 16:56:00,
2013-08-15 13:01:00,71.9,58.2,30.17,South,174,4.6,4.6,62,0.00,SCT,,0.00,WeatherDisplay:10.37,2013-08-15 17:01:00,
2013-08-15 13:06:00,72.8,57.2,30.17,SSW,200,6.9,6.9,58,0.00,SCT,,0.00,WeatherDisplay:10.37,2013-08-15 17:06:00,
2013-08-15 13:11:00,73.0,55.9,30.17,SE,140,8.1,8.1,55,0.00,SCT,,0.00,WeatherDisplay:10.37,2013-08-15 17:11:00,
2013-08-15 13:16:00,73.5,56.9,30.17,SSW,200,8.1,8.1,56,0.00,SCT,,0.00,WeatherDisplay:10.37,2013-08-15 17:16:00,
2013-08-15 13:21:00,73.5,55.4,30.17,South,176,6.9,6.9,53,0.00,SCT,,0.00,WeatherDisplay:10.37,2013-08-15 17:21:00,
2013-08-15 13:26:00,73.3,54.6,30.17,SSW,200,8.1,8.1,52,0.00,SCT,,0.00,WeatherDisplay:10.37,2013-08-15 17:26:00,
2013-08-15 13:31:00,72.8,55.2,30.17,SSE,165,5.8,5.8,54,0.00,SCT,,0.00,WeatherDisplay:10.37,2013-08-15 17:31:00,
2013-08-15 13:36:00,72.0,54.5,30.17,SE,141,5.8,5.8,54,0.00,SCT,,0.00,WeatherDisplay:10.37,2013-08-15 17:36:00,
2013-08-15 13:41:00,71.3,54.3,30.16,SSE,160,2.3,2.3,55,0.00,SCT,,0.00,WeatherDisplay:10.37,2013-08-15 17:41:00,
2013-08-15 13:46:00,71.1,55.1,30.16,SSE,151,1.4,1.4,57,0.00,SCT,,0.00,WeatherDisplay:10.37,2013-08-15 17:46:00,
2013-08-15 13:52:00,71.3,56.3,30.16,WNW,291,3.5,3.5,59,0.00,SCT,,0.00,WeatherDisplay:10.37,2013-08-15 17:52:00,
2013-08-15 13:57:00,71.5,55.0,30.16,South,178,3.5,3.5,56,0.00,SCT,,0.00,WeatherDisplay:10.37,2013-08-15 17:57:00,
2013-08-15 14:02:00,71.3,55.3,30.16,SSE,164,3.1,3.1,57,0.00,BKN,SCT,0.00,WeatherDisplay:10.37,2013-08-15 18:02:00,
2013-08-15 14:07:00,71.6,56.1,30.16,NNE,27,2.3,2.3,58,0.00,BKN,SCT,0.00,WeatherDisplay:10.37,2013-08-15 18:07:00,
2013-08-15 14:12:00,71.9,56.4,30.16,East,99,4.6,4.6,58,0.00,BKN,SCT,0.00,WeatherDisplay:10.37,2013-08-15 18:12:00,
2013-08-15 14:18:00,72.1,55.6,30.15,ENE,65,4.6,4.6,56,0.00,BKN,SCT,0.00,WeatherDisplay:10.37,2013-08-15 18:18:00,
2013-08-15 14:24:00,72.1,55.6,30.15,ESE,106,8.1,8.1,56,0.00,BKN,SCT,0.00,WeatherDisplay:10.37,2013-08-15 18:24:00,
2013-08-15 14:30:00,71.9,55.9,30.15,SSE,167,5.9,5.9,57,0.00,BKN,SCT,0.00,WeatherDisplay:10.37,2013-08-15 18:30:00,
2013-08-15 14:35:00,72.3,56.2,30.15,SE,145,8.1,8.1,57,0.00,BKN,SCT,0.00,WeatherDisplay:10.37,2013-08-15 18:35:00,
2013-08-15 14:40:00,72.6,56.0,30.15,SE,128,2.3,2.3,56,0.00,BKN,SCT,0.00,WeatherDisplay:10.37,2013-08-15 18:40:00,
2013-08-15 14:45:00,73.1,56.0,30.15,South,176,9.2,9.2,55,0.00,BKN,SCT,0.00,WeatherDisplay:10.37,2013-08-15 18:45:00,
2013-08-15 14:50:00,73.7,56.1,30.16,ESE,113,3.5,3.5,54,0.00,BKN,SCT,0.00,WeatherDisplay:10.37,2013-08-15 18:50:00,
2013-08-15 14:57:00,73.9,56.2,30.16,South,171,6.9,6.9,54,0.00,BKN,SCT,0.00,WeatherDisplay:10.37,2013-08-15 18:57:00,
2013-08-15 15:02:00,73.6,56.5,30.16,SW,236,4.6,4.6,55,0.00,BKN,SCT,0.00,WeatherDisplay:10.37,2013-08-15 19:02:00,
2013-08-15 15:07:00,73.7,56.6,30.15,SE,138,3.5,3.5,55,0.00,BKN,SCT,0.00,WeatherDisplay:10.37,2013-08-15 19:07:00,
2013-08-15 15:12:00,73.8,56.1,30.15,South,179,5.8,5.8,54,0.00,BKN,SCT,0.00,WeatherDisplay:10.37,2013-08-15 19:12:00,
2013-08-15 15:17:00,73.3,55.7,30.15,South,172,4.6,4.6,54,0.00,BKN,SCT,0.00,WeatherDisplay:10.37,2013-08-15 19:17:00,
2013-08-15 15:22:00,72.9,56.3,30.14,ESE,121,1.1,0.0,56,0.00,BKN,SCT,0.00,WeatherDisplay:10.37,2013-08-15 19:22:00,
2013-08-15 15:27:00,72.9,55.8,30.14,ESE,117,4.6,4.6,55,0.00,BKN,SCT,0.00,WeatherDisplay:10.37,2013-08-15 19:27:00,
2013-08-15 15:32:00,72.9,56.3,30.14,South,186,3.5,3.5,56,0.00,BKN,SCT,0.00,WeatherDisplay:10.37,2013-08-15 19:32:00,
2013-08-15 15:37:00,73.3,55.7,30.14,SSE,158,4.6,4.6,54,0.00,BKN,SCT,0.00,WeatherDisplay:10.37,2013-08-15 19:37:00,
2013-08-15 15:42:00,73.3,55.2,30.14,South,172,3.5,3.5,53,0.00,BKN,SCT,0.00,WeatherDisplay:10.37,2013-08-15 19:42:00,
2013-08-15 15:47:00,73.7,56.1,30.14,ENE,71,0.0,0.6,54,0.00,BKN,SCT,0.00,WeatherDisplay:10.37,2013-08-15 19:47:00,
2013-08-15 15:52:00,73.6,56.0,30.14,SSE,158,4.6,4.6,54,0.00,BKN,SCT,0.00,WeatherDisplay:10.37,2013-08-15 19:52:00,
2013-08-15 15:57:00,73.3,55.2,30.13,South,179,2.3,2.3,53,0.00,BKN,SCT,0.00,WeatherDisplay:10.37,2013-08-15 19:57:00,
2013-08-15 16:02:00,73.3,56.2,30.13,SSE,168,5.1,5.6,55,0.00,SCT,,0.00,WeatherDisplay:10.37,2013-08-15 20:02:00,
2013-08-15 16:08:00,72.9,55.3,30.13,SSE,161,10.4,10.4,54,0.00,SCT,,0.00,WeatherDisplay:10.37,2013-08-15 20:08:00,
2013-08-15 16:13:00,72.4,54.3,30.13,South,184,6.9,6.9,53,0.00,SCT,,0.00,WeatherDisplay:10.37,2013-08-15 20:13:00,
2013-08-15 16:18:00,72.2,54.7,30.13,SSE,157,8.1,8.1,54,0.00,SCT,,0.00,WeatherDisplay:10.37,2013-08-15 20:18:00,
2013-08-15 16:23:00,72.2,54.7,30.13,South,179,9.2,9.2,54,0.00,SCT,,0.00,WeatherDisplay:10.37,2013-08-15 20:23:00,
2013-08-15 16:29:00,71.7,54.7,30.12,SSW,195,4.6,4.6,55,0.00,SCT,,0.00,WeatherDisplay:10.37,2013-08-15 20:29:00,
2013-08-15 16:34:00,72.2,55.7,30.12,SSW,196,5.1,5.1,56,0.00,SCT,,0.00,WeatherDisplay:10.37,2013-08-15 20:34:00,
2013-08-15 16:39:00,72.6,56.0,30.12,SSE,165,4.6,4.6,56,0.00,SCT,,0.00,WeatherDisplay:10.37,2013-08-15 20:39:00,
2013-08-15 16:44:00,72.7,54.6,30.12,SSE,168,3.5,3.5,53,0.00,SCT,,0.00,WeatherDisplay:10.37,2013-08-15 20:44:00,
2013-08-15 16:49:00,72.9,55.3,30.12,NNW,339,4.6,4.6,54,0.00,SCT,,0.00,WeatherDisplay:10.37,2013-08-15 20:49:00,
2013-08-15 16:54:00,73.2,54.6,30.12,SE,138,2.3,2.3,52,0.00,SCT,,0.00,WeatherDisplay:10.37,2013-08-15 20:54:00,
2013-08-15 17:00:00,73.2,55.6,30.12,SW,234,6.9,6.9,54,0.00,SCT,,0.00,WeatherDisplay:10.37,2013-08-15 21:00:00,
2013-08-15 17:05:00,72.9,55.3,30.12,East,85,4.6,4.6,54,0.00,BKN,SCT,0.00,WeatherDisplay:10.37,2013-08-15 21:05:00,
2013-08-15 17:10:00,72.7,56.1,30.12,SE,138,3.5,3.5,56,0.00,BKN,SCT,0.00,WeatherDisplay:10.37,2013-08-15 21:10:00,
2013-08-15 17:15:00,72.4,54.9,30.12,ESE,109,5.8,5.8,54,0.00,BKN,SCT,0.00,WeatherDisplay:10.37,2013-08-15 21:15:00,
2013-08-15 17:20:00,72.0,55.0,30.12,SE,140,3.5,3.5,55,0.00,BKN,SCT,0.00,WeatherDisplay:10.37,2013-08-15 21:20:00,
2013-08-15 17:25:00,71.7,54.7,30.12,SW,233,5.8,5.8,55,0.00,BKN,SCT,0.00,WeatherDisplay:10.37,2013-08-15 21:25:00,
2013-08-15 17:30:00,71.2,54.7,30.11,SE,134,4.6,4.6,56,0.00,BKN,SCT,0.00,WeatherDisplay:10.37,2013-08-15 21:30:00,
2013-08-15 17:36:00,71.2,54.7,30.11,WSW,258,4.6,4.6,56,0.00,BKN,SCT,0.00,WeatherDisplay:10.37,2013-08-15 21:36:00,
2013-08-15 17:41:00,71.0,54.5,30.11,East,96,5.8,5.8,56,0.00,BKN,SCT,0.00,WeatherDisplay:10.37,2013-08-15 21:41:00,
2013-08-15 17:46:00,70.8,55.3,30.11,SSE,167,4.6,4.6,58,0.00,BKN,SCT,0.00,WeatherDisplay:10.37,2013-08-15 21:46:00,
2013-08-15 17:51:00,70.9,55.9,30.11,SW,230,2.3,2.3,59,0.00,BKN,SCT,0.00,WeatherDisplay:10.37,2013-08-15 21:51:00,
2013-08-15 17:56:00,70.4,55.4,30.12,South,174,6.9,6.9,59,0.00,BKN,SCT,0.00,WeatherDisplay:10.37,2013-08-15 21:56:00,
2013-08-15 18:01:00,69.9,55.0,30.12,South,174,8.1,8.1,59,0.00,BKN,SCT,0.00,WeatherDisplay:10.37,2013-08-15 22:01:00,
2013-08-15 18:07:00,69.8,54.9,30.12,South,186,8.1,8.1,59,0.00,BKN,SCT,0.00,WeatherDisplay:10.37,2013-08-15 22:07:00,
2013-08-15 18:12:00,69.4,54.9,30.12,South,171,6.9,6.9,60,0.00,BKN,SCT,0.00,WeatherDisplay:10.37,2013-08-15 22:12:00,
2013-08-15 18:17:00,69.2,55.7,30.12,South,189,6.9,6.9,62,0.00,BKN,SCT,0.00,WeatherDisplay:10.37,2013-08-15 22:17:00,
2013-08-15 18:22:00,69.1,55.1,30.12,SSW,202,6.9,6.9,61,0.00,BKN,SCT,0.00,WeatherDisplay:10.37,2013-08-15 22:22:00,
2013-08-15 18:27:00,69.1,55.6,30.12,South,174,5.8,5.8,62,0.00,BKN,SCT,0.00,WeatherDisplay:10.37,2013-08-15 22:27:00,
2013-08-15 18:32:00,69.0,55.5,30.12,SE,145,5.8,5.8,62,0.00,BKN,SCT,0.00,WeatherDisplay:10.37,2013-08-15 22:32:00,
2013-08-15 18:37:00,69.0,55.9,30.12,South,169,4.2,4.2,63,0.00,BKN,SCT,0.00,WeatherDisplay:10.37,2013-08-15 22:37:00,
2013-08-15 18:42:00,68.9,55.8,30.12,South,178,2.9,2.9,63,0.00,BKN,SCT,0.00,WeatherDisplay:10.37,2013-08-15 22:42:00,
2013-08-15 18:47:00,69.1,56.0,30.12,South,185,8.1,8.1,63,0.00,BKN,SCT,0.00,WeatherDisplay:10.37,2013-08-15 22:47:00,
2013-08-15 18:52:00,69.0,55.9,30.12,South,189,5.8,5.8,63,0.00,BKN,SCT,0.00,WeatherDisplay:10.37,2013-08-15 22:52:00,
2013-08-15 18:57:00,68.7,55.6,30.12,SSE,164,5.8,5.8,63,0.00,BKN,SCT,0.00,WeatherDisplay:10.37,2013-08-15 22:57:00,
2013-08-15 19:02:00,68.7,55.2,30.12,SSE,152,4.6,4.6,62,0.00,SCT,,0.00,WeatherDisplay:10.37,2013-08-15 23:02:00,
2013-08-15 19:07:00,68.6,55.5,30.12,South,169,5.8,5.8,63,0.00,SCT,,0.00,WeatherDisplay:10.37,2013-08-15 23:07:00,
2013-08-15 19:12:00,68.2,55.2,30.12,South,182,4.9,4.9,63,0.00,SCT,,0.00,WeatherDisplay:10.37,2013-08-15 23:12:00,
2013-08-15 19:17:00,68.0,55.0,30.13,SSW,195,4.6,4.6,63,0.00,SCT,,0.00,WeatherDisplay:10.37,2013-08-15 23:17:00,
2013-08-15 19:22:00,68.0,55.0,30.13,South,184,5.8,5.8,63,0.00,SCT,,0.00,WeatherDisplay:10.37,2013-08-15 23:22:00,
2013-08-15 19:27:00,67.9,55.3,30.13,South,181,6.9,6.9,64,0.00,SCT,,0.00,WeatherDisplay:10.37,2013-08-15 23:27:00,
2013-08-15 19:32:00,67.7,55.1,30.13,SSE,152,5.8,5.8,64,0.00,SCT,,0.00,WeatherDisplay:10.37,2013-08-15 23:32:00,
2013-08-15 19:37:00,67.6,55.0,30.14,SSE,162,6.9,6.9,64,0.00,SCT,,0.00,WeatherDisplay:10.37,2013-08-15 23:37:00,
2013-08-15 19:42:00,67.3,54.7,30.14,South,175,6.9,6.9,64,0.00,SCT,,0.00,WeatherDisplay:10.37,2013-08-15 23:42:00,
2013-08-15 19:47:00,67.2,54.6,30.14,SSE,164,5.8,5.8,64,0.00,SCT,,0.00,WeatherDisplay:10.37,2013-08-15 23:47:00,
2013-08-15 19:52:00,67.2,54.6,30.14,SSE,160,4.6,4.6,64,0.00,SCT,,0.00,WeatherDisplay:10.37,2013-08-15 23:52:00,
2013-08-15 19:57:00,67.2,54.6,30.14,SSE,167,6.9,6.9,64,0.00,SCT,,0.00,WeatherDisplay:10.37,2013-08-15 23:57:00,
2013-08-15 20:03:00,66.8,54.7,30.14,South,176,9.2,9.2,65,0.00,FEW,SCT,0.00,WeatherDisplay:10.37,2013-08-16 00:03:00,
2013-08-15 20:08:00,66.6,54.5,30.14,South,172,8.1,8.1,65,0.00,FEW,SCT,0.00,WeatherDisplay:10.37,2013-08-16 00:08:00,
2013-08-15 20:13:00,66.4,54.3,30.14,South,181,8.1,8.1,65,0.00,FEW,SCT,0.00,WeatherDisplay:10.37,2013-08-16 00:13:00,
2013-08-15 20:18:00,66.2,54.5,30.14,SSE,167,5.8,5.8,66,0.00,FEW,SCT,0.00,WeatherDisplay:10.37,2013-08-16 00:18:00,
2013-08-15 20:23:00,66.1,54.4,30.14,South,179,8.1,8.1,66,0.00,FEW,SCT,0.00,WeatherDisplay:10.37,2013-08-16 00:23:00,
2013-08-15 20:28:00,65.8,55.8,30.14,South,171,6.9,6.9,70,0.00,FEW,SCT,0.00,WeatherDisplay:10.37,2013-08-16 00:28:00,
2013-08-15 20:33:00,65.1,54.7,30.14,SSE,168,8.1,8.1,69,0.00,FEW,SCT,0.00,WeatherDisplay:10.37,2013-08-16 00:33:00,
2013-08-15 20:38:00,64.9,54.5,30.14,South,172,8.1,8.1,69,0.00,FEW,SCT,0.00,WeatherDisplay:10.37,2013-08-16 00:38:00,
2013-08-15 20:43:00,64.8,54.4,30.14,South,182,8.1,8.1,69,0.00,FEW,SCT,0.00,WeatherDisplay:10.37,2013-08-16 00:43:00,
2013-08-15 20:48:00,64.3,54.3,30.15,South,174,10.4,10.4,70,0.00,FEW,SCT,0.00,WeatherDisplay:10.37,2013-08-16 00:48:00,
2013-08-15 20:53:00,64.1,54.5,30.15,South,184,8.1,8.1,71,0.00,FEW,SCT,0.00,WeatherDisplay:10.37,2013-08-16 00:53:00,
2013-08-15 20:58:00,63.9,55.1,30.15,South,185,8.1,8.1,73,0.00,FEW,SCT,0.00,WeatherDisplay:10.37,2013-08-16 00:58:00,
2013-08-15 21:03:00,63.7,55.3,30.15,South,179,6.9,6.9,74,0.00,FEW,SCT,0.00,WeatherDisplay:10.37,2013-08-16 01:03:00,
2013-08-15 21:08:00,63.3,55.3,30.15,South,179,9.2,9.2,75,0.00,FEW,SCT,0.00,WeatherDisplay:10.37,2013-08-16 01:08:00,
2013-08-15 21:13:00,63.3,55.3,30.15,South,178,9.2,9.2,75,0.00,FEW,SCT,0.00,WeatherDisplay:10.37,2013-08-16 01:13:00,
2013-08-15 21:18:00,63.3,55.6,30.16,SSE,168,8.1,8.1,76,0.00,FEW,SCT,0.00,WeatherDisplay:10.37,2013-08-16 01:18:00,
2013-08-15 21:23:00,63.1,55.4,30.16,South,171,8.1,8.1,76,0.00,FEW,SCT,0.00,WeatherDisplay:10.37,2013-08-16 01:23:00,
2013-08-15 21:31:00,62.9,55.6,30.16,South,182,8.1,8.1,77,0.00,FEW,SCT,0.00,WeatherDisplay:10.37,2013-08-16 01:31:00,
2013-08-15 21:37:00,62.7,55.4,30.16,SSE,167,8.1,8.1,77,0.00,FEW,SCT,0.00,WeatherDisplay:10.37,2013-08-16 01:37:00,
2013-08-15 21:42:00,62.8,55.9,30.17,South,175,7.0,7.0,78,0.00,FEW,SCT,0.00,WeatherDisplay:10.37,2013-08-16 01:42:00,
2013-08-15 21:47:00,62.7,55.8,30.17,South,176,6.9,6.9,78,0.00,FEW,SCT,0.00,WeatherDisplay:10.37,2013-08-16 01:47:00,
2013-08-15 21:52:00,62.7,55.8,30.17,SSE,168,6.9,6.9,78,0.00,FEW,SCT,0.00,WeatherDisplay:10.37,2013-08-16 01:52:00,
2013-08-15 21:57:00,62.5,55.6,30.17,South,169,6.9,6.9,78,0.00,FEW,SCT,0.00,WeatherDisplay:10.37,2013-08-16 01:57:00,
2013-08-15 22:02:00,62.6,55.7,30.17,South,184,8.1,8.1,78,0.00,FEW,SCT,0.00,WeatherDisplay:10.37,2013-08-16 02:02:00,
2013-08-15 22:07:00,62.5,55.6,30.17,South,175,6.9,6.9,78,0.00,FEW,SCT,0.00,WeatherDisplay:10.37,2013-08-16 02:07:00,
2013-08-15 22:12:00,62.3,55.4,30.17,South,171,6.9,6.9,78,0.00,FEW,SCT,0.00,WeatherDisplay:10.37,2013-08-16 02:12:00,
2013-08-15 22:17:00,62.3,55.4,30.17,SSE,167,5.8,5.8,78,0.00,FEW,SCT,0.00,WeatherDisplay:10.37,2013-08-16 02:17:00,
2013-08-15 22:22:00,62.2,55.3,30.17,SSW,192,5.8,5.8,78,0.00,FEW,SCT,0.00,WeatherDisplay:10.37,2013-08-16 02:22:00,
2013-08-15 22:27:00,62.3,55.4,30.17,South,185,5.8,5.8,78,0.00,FEW,SCT,0.00,WeatherDisplay:10.37,2013-08-16 02:27:00,
2013-08-15 22:32:00,62.3,55.4,30.17,SSE,168,4.6,4.6,78,0.00,FEW,SCT,0.00,WeatherDisplay:10.37,2013-08-16 02:32:00,
2013-08-15 22:37:00,62.2,55.3,30.17,SSE,160,4.6,4.6,78,0.00,FEW,SCT,0.00,WeatherDisplay:10.37,2013-08-16 02:37:00,
2013-08-15 22:42:00,62.4,55.1,30.17,SE,143,2.3,2.3,77,0.00,FEW,SCT,0.00,WeatherDisplay:10.37,2013-08-16 02:42:00,
2013-08-15 22:47:00,62.7,55.1,30.17,SE,137,2.3,0.0,76,0.00,FEW,SCT,0.00,WeatherDisplay:10.37,2013-08-16 02:47:00,
2013-08-15 22:52:00,62.6,55.0,30.17,South,181,0.0,0.0,76,0.00,FEW,SCT,0.00,WeatherDisplay:10.37,2013-08-16 02:52:00,
2013-08-15 22:57:00,62.8,55.2,30.17,SE,133,0.0,0.0,76,0.00,FEW,SCT,0.00,WeatherDisplay:10.37,2013-08-16 02:57:00,
2013-08-15 23:02:00,62.8,55.2,30.17,SE,133,0.0,0.0,76,0.00,CLR,SCT,0.00,WeatherDisplay:10.37,2013-08-16 03:02:00,
2013-08-15 23:07:00,63.1,55.1,30.17,SE,133,0.0,0.0,75,0.00,CLR,SCT,0.00,WeatherDisplay:10.37,2013-08-16 03:07:00,
2013-08-15 23:12:00,62.9,55.3,30.17,SE,133,0.0,0.0,76,0.00,CLR,SCT,0.00,WeatherDisplay:10.37,2013-08-16 03:12:00,
2013-08-15 23:17:00,62.7,55.1,30.17,SE,133,0.0,0.0,76,0.00,CLR,SCT,0.00,WeatherDisplay:10.37,2013-08-16 03:17:00,
2013-08-15 23:22:00,62.6,55.3,30.17,SE,133,0.0,0.0,77,0.00,CLR,SCT,0.00,WeatherDisplay:10.37,2013-08-16 03:22:00,
2013-08-15 23:27:00,62.4,55.1,30.17,SE,133,0.0,0.0,77,0.00,CLR,SCT,0.00,WeatherDisplay:10.37,2013-08-16 03:27:00,
2013-08-15 23:32:00,62.3,55.0,30.17,SE,133,0.0,0.0,77,0.00,CLR,SCT,0.00,WeatherDisplay:10.37,2013-08-16 03:32:00,
2013-08-15 23:37:00,62.1,54.8,30.17,SE,133,0.0,0.0,77,0.00,CLR,SCT,0.00,WeatherDisplay:10.37,2013-08-16 03:37:00,
2013-08-15 23:42:00,62.0,54.7,30.17,SE,133,0.0,0.0,77,0.00,CLR,SCT,0.00,WeatherDisplay:10.37,2013-08-16 03:42:00,
2013-08-15 23:47:00,62.1,54.8,30.17,SE,133,0.0,0.0,77,0.00,CLR,SCT,0.00,WeatherDisplay:10.37,2013-08-16 03:47:00,
2013-08-15 23:52:00,62.0,54.7,30.17,SE,133,0.0,0.0,77,0.00,CLR,SCT,0.00,WeatherDisplay:10.37,2013-08-16 03:52:00,
2013-08-15 23:57:00,62.0,55.1,30.17,SE,133,0.0,0.0,78,0.00,CLR,SCT,0.00,WeatherDisplay:10.37,2013-08-16 03:57:00,